sensor_id;sensor_type;location;lat;lon;timestamp;pressure;altitude;pressure_sealevel;temperature;humidity
72428;BME280;60419;48.880;18.036;2023-04-01T00:01:29;97511.31;;;12.63;56.46
72428;BME280;60419;48.880;18.036;2023-04-01T00:04:14;97520.72;;;11.98;58.57
72428;BME280;60419;48.880;18.036;2023-04-01T00:07:00;97522.13;;;11.60;59.77
72428;BME280;60419;48.880;18.036;2023-04-01T00:09:46;97520.84;;;12.21;57.84
72428;BME280;60419;48.880;18.036;2023-04-01T00:12:32;97522.13;;;12.43;57.15
72428;BME280;60419;48.880;18.036;2023-04-01T00:15:17;97514.38;;;12.42;56.96
72428;BME280;60419;48.880;18.036;2023-04-01T00:18:03;97517.78;;;12.39;57.10
72428;BME280;60419;48.880;18.036;2023-04-01T00:20:50;97516.66;;;12.24;57.80
72428;BME280;60419;48.880;18.036;2023-04-01T00:23:36;97522.06;;;12.40;57.24
72428;BME280;60419;48.880;18.036;2023-04-01T00:26:22;97524.44;;;12.25;57.97
72428;BME280;60419;48.880;18.036;2023-04-01T00:29:08;97528.19;;;12.21;57.97
72428;BME280;60419;48.880;18.036;2023-04-01T00:31:53;97529.81;;;10.98;61.99
72428;BME280;60419;48.880;18.036;2023-04-01T00:34:38;97525.38;;;11.06;61.83
72428;BME280;60419;48.880;18.036;2023-04-01T00:37:25;97531.72;;;11.26;61.57
72428;BME280;60419;48.880;18.036;2023-04-01T00:43:21;97529.47;;;10.59;63.96
72428;BME280;60419;48.880;18.036;2023-04-01T00:46:07;97531.53;;;10.91;63.65
72428;BME280;60419;48.880;18.036;2023-04-01T00:48:54;97532.34;;;10.79;63.68
72428;BME280;60419;48.880;18.036;2023-04-01T00:51:41;97534.75;;;11.24;62.57
72428;BME280;60419;48.880;18.036;2023-04-01T00:54:30;97541.13;;;11.32;62.44
72428;BME280;60419;48.880;18.036;2023-04-01T00:57:21;97540.19;;;11.72;61.18
72428;BME280;60419;48.880;18.036;2023-04-01T01:00:11;97541.75;;;11.41;61.89
72428;BME280;60419;48.880;18.036;2023-04-01T01:02:59;97546.28;;;10.81;64.46
72428;BME280;60419;48.880;18.036;2023-04-01T01:06:03;97552.72;;;10.24;65.38
72428;BME280;60419;48.880;18.036;2023-04-01T01:12:08;97544.56;;;10.60;64.14
72428;BME280;60419;48.880;18.036;2023-04-01T01:33:10;97538.31;;;10.72;64.80
72428;BME280;60419;48.880;18.036;2023-04-01T01:36:03;97524.06;;;10.19;65.77
72428;BME280;60419;48.880;18.036;2023-04-01T01:38:50;97537.47;;;10.56;65.31
72428;BME280;60419;48.880;18.036;2023-04-01T01:41:37;97541.31;;;10.83;64.68
72428;BME280;60419;48.880;18.036;2023-04-01T01:44:26;97544.09;;;10.58;64.73
72428;BME280;60419;48.880;18.036;2023-04-01T01:47:14;97541.31;;;10.83;64.29
72428;BME280;60419;48.880;18.036;2023-04-01T01:50:00;97543.50;;;10.25;65.83
72428;BME280;60419;48.880;18.036;2023-04-01T01:52:46;97539.25;;;10.52;64.91
72428;BME280;60419;48.880;18.036;2023-04-01T01:55:34;97545.06;;;10.01;66.48
72428;BME280;60419;48.880;18.036;2023-04-01T02:01:14;97549.13;;;10.20;65.64
72428;BME280;60419;48.880;18.036;2023-04-01T02:04:02;97544.41;;;10.29;65.40
72428;BME280;60419;48.880;18.036;2023-04-01T02:06:53;97544.16;;;10.22;64.85
72428;BME280;60419;48.880;18.036;2023-04-01T02:09:41;97543.38;;;10.74;63.84
72428;BME280;60419;48.880;18.036;2023-04-01T02:12:28;97534.56;;;10.49;63.90
72428;BME280;60419;48.880;18.036;2023-04-01T02:15:15;97524.66;;;10.53;63.66
72428;BME280;60419;48.880;18.036;2023-04-01T02:18:02;97537.09;;;10.70;63.20
72428;BME280;60419;48.880;18.036;2023-04-01T02:20:49;97533.31;;;10.46;64.79
72428;BME280;60419;48.880;18.036;2023-04-01T02:23:36;97527.88;;;10.71;63.78
72428;BME280;60419;48.880;18.036;2023-04-01T02:26:23;97530.19;;;10.85;63.07
72428;BME280;60419;48.880;18.036;2023-04-01T02:29:11;97514.97;;;10.52;63.63
72428;BME280;60419;48.880;18.036;2023-04-01T02:31:58;97524.66;;;10.53;64.12
72428;BME280;60419;48.880;18.036;2023-04-01T02:34:44;97510.84;;;10.70;63.18
72428;BME280;60419;48.880;18.036;2023-04-01T02:37:29;97519.88;;;11.02;61.84
72428;BME280;60419;48.880;18.036;2023-04-01T02:40:16;97518.78;;;10.91;61.92
72428;BME280;60419;48.880;18.036;2023-04-01T02:43:02;97513.22;;;10.72;62.56
72428;BME280;60419;48.880;18.036;2023-04-01T02:45:47;97515.63;;;10.61;62.44
72428;BME280;60419;48.880;18.036;2023-04-01T02:48:32;97518.25;;;10.57;62.67
72428;BME280;60419;48.880;18.036;2023-04-01T02:51:18;97517.03;;;10.43;63.08
72428;BME280;60419;48.880;18.036;2023-04-01T02:54:04;97517.34;;;10.41;62.70
72428;BME280;60419;48.880;18.036;2023-04-01T02:56:49;97525.50;;;10.29;63.30
72428;BME280;60419;48.880;18.036;2023-04-01T02:59:34;97511.28;;;10.44;62.76
72428;BME280;60419;48.880;18.036;2023-04-01T03:02:20;97506.06;;;10.64;62.97
72428;BME280;60419;48.880;18.036;2023-04-01T03:05:06;97517.06;;;10.99;62.14
72428;BME280;60419;48.880;18.036;2023-04-01T03:07:52;97525.38;;;10.13;64.13
72428;BME280;60419;48.880;18.036;2023-04-01T03:10:37;97519.72;;;10.43;63.01
72428;BME280;60419;48.880;18.036;2023-04-01T03:13:22;97527.66;;;10.64;63.04
72428;BME280;60419;48.880;18.036;2023-04-01T03:16:08;97525.84;;;9.66;66.09
72428;BME280;60419;48.880;18.036;2023-04-01T03:18:53;97529.63;;;9.28;67.85
72428;BME280;60419;48.880;18.036;2023-04-01T03:21:41;97528.19;;;9.43;67.09
72428;BME280;60419;48.880;18.036;2023-04-01T03:24:27;97524.22;;;10.38;64.85
72428;BME280;60419;48.880;18.036;2023-04-01T03:27:12;97528.75;;;9.61;67.58
72428;BME280;60419;48.880;18.036;2023-04-01T03:29:58;97530.56;;;10.18;66.08
72428;BME280;60419;48.880;18.036;2023-04-01T03:32:43;97524.00;;;10.31;63.60
72428;BME280;60419;48.880;18.036;2023-04-01T03:35:28;97533.59;;;9.55;65.82
72428;BME280;60419;48.880;18.036;2023-04-01T03:38:14;97532.38;;;10.26;64.40
72428;BME280;60419;48.880;18.036;2023-04-01T03:41:01;97527.75;;;10.67;63.94
72428;BME280;60419;48.880;18.036;2023-04-01T03:43:46;97531.69;;;11.10;62.80
72428;BME280;60419;48.880;18.036;2023-04-01T03:46:31;97539.38;;;10.96;62.37
72428;BME280;60419;48.880;18.036;2023-04-01T03:49:17;97530.41;;;10.39;64.31
72428;BME280;60419;48.880;18.036;2023-04-01T03:52:03;97540.13;;;10.15;64.58
72428;BME280;60419;48.880;18.036;2023-04-01T03:54:48;97527.44;;;10.56;61.67
72428;BME280;60419;48.880;18.036;2023-04-01T03:57:34;97518.41;;;10.65;62.54
72428;BME280;60419;48.880;18.036;2023-04-01T04:00:19;97536.28;;;10.81;63.01
72428;BME280;60419;48.880;18.036;2023-04-01T04:03:05;97540.13;;;11.09;62.41
72428;BME280;60419;48.880;18.036;2023-04-01T04:05:51;97538.88;;;11.50;61.41
72428;BME280;60419;48.880;18.036;2023-04-01T04:08:36;97536.38;;;11.57;60.72
72428;BME280;60419;48.880;18.036;2023-04-01T04:11:22;97545.25;;;11.42;61.20
72428;BME280;60419;48.880;18.036;2023-04-01T04:14:08;97550.16;;;11.68;60.14
72428;BME280;60419;48.880;18.036;2023-04-01T04:16:53;97550.75;;;11.77;59.95
72428;BME280;60419;48.880;18.036;2023-04-01T04:19:38;97540.03;;;11.81;59.97
72428;BME280;60419;48.880;18.036;2023-04-01T04:22:24;97555.28;;;11.73;60.00
72428;BME280;60419;48.880;18.036;2023-04-01T04:25:09;97548.84;;;11.78;59.56
72428;BME280;60419;48.880;18.036;2023-04-01T04:27:55;97555.75;;;11.75;59.52
72428;BME280;60419;48.880;18.036;2023-04-01T04:30:40;97552.84;;;11.52;60.00
72428;BME280;60419;48.880;18.036;2023-04-01T04:33:26;97532.16;;;11.44;59.26
72428;BME280;60419;48.880;18.036;2023-04-01T04:36:12;97556.88;;;11.14;60.94
72428;BME280;60419;48.880;18.036;2023-04-01T04:38:57;97555.28;;;10.45;62.72
72428;BME280;60419;48.880;18.036;2023-04-01T04:41:46;97561.69;;;10.28;63.56
72428;BME280;60419;48.880;18.036;2023-04-01T04:44:32;97553.03;;;9.73;64.69
72428;BME280;60419;48.880;18.036;2023-04-01T04:47:17;97564.38;;;9.79;64.12
72428;BME280;60419;48.880;18.036;2023-04-01T04:50:03;97548.06;;;9.50;64.24
72428;BME280;60419;48.880;18.036;2023-04-01T04:52:49;97561.47;;;9.71;64.56
72428;BME280;60419;48.880;18.036;2023-04-01T04:55:34;97574.97;;;9.71;64.41
72428;BME280;60419;48.880;18.036;2023-04-01T04:58:20;97578.03;;;9.37;65.71
72428;BME280;60419;48.880;18.036;2023-04-01T05:01:10;97576.78;;;9.80;63.99
72428;BME280;60419;48.880;18.036;2023-04-01T05:03:56;97569.91;;;10.07;62.96
72428;BME280;60419;48.880;18.036;2023-04-01T05:06:43;97555.78;;;9.98;63.10
72428;BME280;60419;48.880;18.036;2023-04-01T05:09:29;97576.56;;;10.22;63.32
72428;BME280;60419;48.880;18.036;2023-04-01T05:12:16;97551.47;;;9.84;62.33
72428;BME280;60419;48.880;18.036;2023-04-01T05:15:04;97568.00;;;10.32;61.42
72428;BME280;60419;48.880;18.036;2023-04-01T05:17:50;97539.22;;;10.76;59.63
72428;BME280;60419;48.880;18.036;2023-04-01T05:20:35;97558.94;;;11.05;59.19
72428;BME280;60419;48.880;18.036;2023-04-01T05:23:21;97576.13;;;10.60;61.14
72428;BME280;60419;48.880;18.036;2023-04-01T05:26:10;97560.53;;;10.53;60.09
72428;BME280;60419;48.880;18.036;2023-04-01T05:28:56;97564.63;;;10.75;59.80
72428;BME280;60419;48.880;18.036;2023-04-01T05:31:41;97560.34;;;11.15;58.64
72428;BME280;60419;48.880;18.036;2023-04-01T05:34:27;97556.06;;;11.42;58.16
72428;BME280;60419;48.880;18.036;2023-04-01T05:37:13;97573.47;;;11.00;58.37
72428;BME280;60419;48.880;18.036;2023-04-01T05:39:58;97568.94;;;11.33;58.08
72428;BME280;60419;48.880;18.036;2023-04-01T05:42:44;97565.63;;;10.43;60.89
72428;BME280;60419;48.880;18.036;2023-04-01T05:45:29;97564.28;;;11.17;59.14
72428;BME280;60419;48.880;18.036;2023-04-01T05:48:15;97566.09;;;11.41;58.23
72428;BME280;60419;48.880;18.036;2023-04-01T05:51:01;97559.91;;;11.57;57.46
72428;BME280;60419;48.880;18.036;2023-04-01T05:53:47;97562.13;;;11.67;58.04
72428;BME280;60419;48.880;18.036;2023-04-01T05:56:32;97557.56;;;11.11;58.48
72428;BME280;60419;48.880;18.036;2023-04-01T05:59:18;97552.06;;;11.52;57.42
72428;BME280;60419;48.880;18.036;2023-04-01T06:02:03;97555.47;;;11.04;58.78
72428;BME280;60419;48.880;18.036;2023-04-01T06:04:49;97559.75;;;11.21;58.35
72428;BME280;60419;48.880;18.036;2023-04-01T06:07:34;97567.09;;;10.93;59.21
72428;BME280;60419;48.880;18.036;2023-04-01T06:10:21;97569.56;;;10.98;59.45
72428;BME280;60419;48.880;18.036;2023-04-01T06:20:26;97569.56;;;10.45;61.05
72428;BME280;60419;48.880;18.036;2023-04-01T06:23:22;97576.50;;;10.99;60.03
72428;BME280;60419;48.880;18.036;2023-04-01T06:29:22;97581.38;;;10.28;61.77
72428;BME280;60419;48.880;18.036;2023-04-01T06:35:34;97590.59;;;9.90;62.72
72428;BME280;60419;48.880;18.036;2023-04-01T06:54:03;97572.88;;;10.67;59.23
72428;BME280;60419;48.880;18.036;2023-04-01T06:56:54;97593.53;;;10.22;60.21
72428;BME280;60419;48.880;18.036;2023-04-01T06:59:43;97590.00;;;10.34;60.26
72428;BME280;60419;48.880;18.036;2023-04-01T07:02:36;97599.88;;;9.68;62.47
72428;BME280;60419;48.880;18.036;2023-04-01T07:05:34;97585.75;;;10.33;61.27
72428;BME280;60419;48.880;18.036;2023-04-01T07:08:24;97593.06;;;10.32;61.18
72428;BME280;60419;48.880;18.036;2023-04-01T07:11:19;97596.09;;;11.52;70.75
72428;BME280;60419;48.880;18.036;2023-04-01T07:17:31;97608.25;;;10.37;60.83
72428;BME280;60419;48.880;18.036;2023-04-01T07:20:28;97607.56;;;10.15;61.81
72428;BME280;60419;48.880;18.036;2023-04-01T07:23:21;97606.00;;;9.90;62.92
72428;BME280;60419;48.880;18.036;2023-04-01T07:26:24;97596.88;;;10.44;61.74
72428;BME280;60419;48.880;18.036;2023-04-01T07:29:12;97607.66;;;10.68;61.15
72428;BME280;60419;48.880;18.036;2023-04-01T07:32:29;97606.28;;;10.74;61.12
72428;BME280;60419;48.880;18.036;2023-04-01T07:35:21;97612.84;;;10.49;61.95
72428;BME280;60419;48.880;18.036;2023-04-01T07:38:19;97580.91;;;11.03;59.93
72428;BME280;60419;48.880;18.036;2023-04-01T07:41:32;97611.22;;;10.72;60.92
72428;BME280;60419;48.880;18.036;2023-04-01T07:44:40;97607.69;;;10.96;60.72
72428;BME280;60419;48.880;18.036;2023-04-01T07:50:53;97610.47;;;10.59;62.10
72428;BME280;60419;48.880;18.036;2023-04-01T07:56:45;97611.44;;;10.79;63.28
72428;BME280;60419;48.880;18.036;2023-04-01T08:15:28;97619.69;;;10.34;65.40
72428;BME280;60419;48.880;18.036;2023-04-01T08:21:28;97620.63;;;10.50;64.24
72428;BME280;60419;48.880;18.036;2023-04-01T08:27:09;97630.84;;;10.08;64.62
72428;BME280;60419;48.880;18.036;2023-04-01T08:30:00;97628.72;;;10.01;64.23
72428;BME280;60419;48.880;18.036;2023-04-01T08:32:53;97604.63;;;10.57;64.96
72428;BME280;60419;48.880;18.036;2023-04-01T08:35:57;97630.72;;;10.66;62.76
72428;BME280;60419;48.880;18.036;2023-04-01T08:38:57;97621.47;;;10.79;61.62
72428;BME280;60419;48.880;18.036;2023-04-01T08:57:39;97642.78;;;12.09;58.15
72428;BME280;60419;48.880;18.036;2023-04-01T09:00:32;97638.97;;;11.82;60.22
72428;BME280;60419;48.880;18.036;2023-04-01T09:21:35;97641.69;;;11.10;65.07
72428;BME280;60419;48.880;18.036;2023-04-01T09:25:13;97640.59;;;11.55;64.83
72428;BME280;60419;48.880;18.036;2023-04-01T09:28:28;97640.38;;;11.32;63.21
72428;BME280;60419;48.880;18.036;2023-04-01T09:40:58;97654.56;;;10.64;64.43
72428;BME280;60419;48.880;18.036;2023-04-01T09:47:28;97659.75;;;11.21;63.52
72428;BME280;60419;48.880;18.036;2023-04-01T11:39:16;97630.34;;;12.24;55.76
72428;BME280;60419;48.880;18.036;2023-04-01T11:45:31;97637.25;;;12.53;55.55
72428;BME280;60419;48.880;18.036;2023-04-01T11:54:51;97651.00;;;12.28;55.34
72428;BME280;60419;48.880;18.036;2023-04-01T12:07:03;97643.13;;;12.90;53.68
72428;BME280;60419;48.880;18.036;2023-04-01T12:13:51;97634.34;;;13.75;51.94
72428;BME280;60419;48.880;18.036;2023-04-01T12:19:20;97617.38;;;13.58;52.31
72428;BME280;60419;48.880;18.036;2023-04-01T12:25:22;97635.84;;;13.95;51.48
72428;BME280;60419;48.880;18.036;2023-04-01T12:55:35;97646.97;;;13.09;54.60
72428;BME280;60419;48.880;18.036;2023-04-01T13:07:40;97651.53;;;13.43;54.50
72428;BME280;60419;48.880;18.036;2023-04-01T13:17:23;97658.66;;;12.93;56.82
72428;BME280;60419;48.880;18.036;2023-04-01T13:26:29;97672.16;;;11.79;58.53
72428;BME280;60419;48.880;18.036;2023-04-01T13:38:04;97666.47;;;11.84;56.89
72428;BME280;60419;48.880;18.036;2023-04-01T13:44:22;97671.50;;;12.29;56.03
72428;BME280;60419;48.880;18.036;2023-04-01T14:20:45;97663.69;;;11.80;57.64
72428;BME280;60419;48.880;18.036;2023-04-01T14:30:16;97655.66;;;13.53;53.13
72428;BME280;60419;48.880;18.036;2023-04-01T14:49:21;97654.38;;;13.90;50.55
72428;BME280;60419;48.880;18.036;2023-04-01T14:52:32;97661.91;;;13.77;51.32
72428;BME280;60419;48.880;18.036;2023-04-01T14:55:26;97654.41;;;13.70;52.07
72428;BME280;60419;48.880;18.036;2023-04-01T14:58:15;97661.06;;;13.34;52.63
72428;BME280;60419;48.880;18.036;2023-04-01T15:01:25;97665.34;;;13.35;52.92
72428;BME280;60419;48.880;18.036;2023-04-01T15:25:43;97676.78;;;12.73;59.56
72428;BME280;60419;48.880;18.036;2023-04-01T15:34:57;97672.31;;;13.75;55.88
72428;BME280;60419;48.880;18.036;2023-04-01T15:44:03;97665.78;;;15.58;49.73
72428;BME280;60419;48.880;18.036;2023-04-01T15:46:49;97680.03;;;15.48;49.51
72428;BME280;60419;48.880;18.036;2023-04-01T15:49:43;97677.75;;;15.50;48.74
72428;BME280;60419;48.880;18.036;2023-04-01T15:55:59;97683.22;;;13.98;52.62
72428;BME280;60419;48.880;18.036;2023-04-01T16:02:07;97692.13;;;14.67;51.54
72428;BME280;60419;48.880;18.036;2023-04-01T16:05:02;97696.19;;;14.54;51.89
72428;BME280;60419;48.880;18.036;2023-04-01T16:15:08;97686.47;;;15.33;49.81
72428;BME280;60419;48.880;18.036;2023-04-01T16:21:13;97678.28;;;16.00;49.45
72428;BME280;60419;48.880;18.036;2023-04-01T16:27:13;97670.75;;;16.27;47.64
72428;BME280;60419;48.880;18.036;2023-04-01T16:30:10;97678.97;;;16.31;47.12
72428;BME280;60419;48.880;18.036;2023-04-01T16:36:39;97684.59;;;16.56;47.24
72428;BME280;60419;48.880;18.036;2023-04-01T16:39:34;97685.44;;;16.64;46.69
72428;BME280;60419;48.880;18.036;2023-04-01T16:48:24;97685.63;;;15.96;46.73
72428;BME280;60419;48.880;18.036;2023-04-01T16:51:15;97702.44;;;14.81;49.08
72428;BME280;60419;48.880;18.036;2023-04-01T16:54:06;97716.69;;;14.74;49.07
72428;BME280;60419;48.880;18.036;2023-04-01T17:03:07;97725.66;;;15.58;47.44
72428;BME280;60419;48.880;18.036;2023-04-01T17:12:17;97740.44;;;13.70;51.87
72428;BME280;60419;48.880;18.036;2023-04-01T17:15:26;97732.72;;;13.91;50.46
72428;BME280;60419;48.880;18.036;2023-04-01T17:30:23;97755.28;;;14.15;51.88
72428;BME280;60419;48.880;18.036;2023-04-01T17:33:41;97758.97;;;14.26;51.43
72428;BME280;60419;48.880;18.036;2023-04-01T17:43:15;97750.91;;;13.32;54.46
72428;BME280;60419;48.880;18.036;2023-04-01T17:45:56;97770.13;;;12.60;56.72
72428;BME280;60419;48.880;18.036;2023-04-01T17:48:55;97762.44;;;11.74;59.88
72428;BME280;60419;48.880;18.036;2023-04-01T17:51:58;97770.72;;;10.88;62.55
72428;BME280;60419;48.880;18.036;2023-04-01T17:55:43;97780.03;;;10.78;63.42
72428;BME280;60419;48.880;18.036;2023-04-01T17:58:21;97786.44;;;11.35;61.02
72428;BME280;60419;48.880;18.036;2023-04-01T18:04:17;97782.56;;;12.17;58.06
72428;BME280;60419;48.880;18.036;2023-04-01T18:07:30;97799.31;;;11.01;62.05
72428;BME280;60419;48.880;18.036;2023-04-01T18:10:23;97797.28;;;9.95;65.68
72428;BME280;60419;48.880;18.036;2023-04-01T18:13:29;97799.78;;;9.58;67.33
72428;BME280;60419;48.880;18.036;2023-04-01T18:16:26;97784.88;;;9.61;66.06
72428;BME280;60419;48.880;18.036;2023-04-01T18:19:38;97802.41;;;10.09;65.41
72428;BME280;60419;48.880;18.036;2023-04-01T18:22:41;97785.13;;;10.22;64.58
72428;BME280;60419;48.880;18.036;2023-04-01T18:28:42;97821.91;;;9.72;66.26
72428;BME280;60419;48.880;18.036;2023-04-01T18:31:38;97820.13;;;9.77;66.64
72428;BME280;60419;48.880;18.036;2023-04-01T18:35:02;97822.97;;;10.47;64.37
72428;BME280;60419;48.880;18.036;2023-04-01T18:41:07;97828.69;;;10.91;63.08
72428;BME280;60419;48.880;18.036;2023-04-01T18:44:31;97838.47;;;11.32;61.55
72428;BME280;60419;48.880;18.036;2023-04-01T18:56:25;97841.09;;;11.81;59.75
72428;BME280;60419;48.880;18.036;2023-04-01T19:02:42;97844.69;;;11.08;62.13
72428;BME280;60419;48.880;18.036;2023-04-01T19:05:34;97847.81;;;11.35;61.14
72428;BME280;60419;48.880;18.036;2023-04-01T19:08:31;97849.50;;;11.15;61.38
72428;BME280;60419;48.880;18.036;2023-04-01T19:20:40;97866.88;;;11.26;61.06
72428;BME280;60419;48.880;18.036;2023-04-01T19:26:39;97871.59;;;11.04;61.94
72428;BME280;60419;48.880;18.036;2023-04-01T19:29:33;97869.94;;;10.67;62.76
72428;BME280;60419;48.880;18.036;2023-04-01T19:35:45;97872.06;;;11.19;63.89
72428;BME280;60419;48.880;18.036;2023-04-01T19:38:56;97873.63;;;11.08;61.94
72428;BME280;60419;48.880;18.036;2023-04-01T19:44:55;97885.56;;;11.07;61.90
72428;BME280;60419;48.880;18.036;2023-04-01T19:51:09;97898.84;;;11.24;63.00
72428;BME280;60419;48.880;18.036;2023-04-01T19:56:46;97895.44;;;10.90;61.98
72428;BME280;60419;48.880;18.036;2023-04-01T20:03:03;97889.91;;;10.53;62.77
72428;BME280;60419;48.880;18.036;2023-04-01T20:05:58;97900.88;;;10.36;62.98
72428;BME280;60419;48.880;18.036;2023-04-01T20:11:57;97902.59;;;10.41;63.06
72428;BME280;60419;48.880;18.036;2023-04-01T20:14:53;97901.44;;;10.08;63.66
72428;BME280;60419;48.880;18.036;2023-04-01T20:17:43;97911.03;;;10.18;64.05
72428;BME280;60419;48.880;18.036;2023-04-01T20:20:31;97908.19;;;10.35;63.33
72428;BME280;60419;48.880;18.036;2023-04-01T20:26:32;97914.53;;;9.47;66.57
72428;BME280;60419;48.880;18.036;2023-04-01T20:42:04;97914.06;;;10.37;63.60
72428;BME280;60419;48.880;18.036;2023-04-01T20:51:15;97923.63;;;10.14;63.63
72428;BME280;60419;48.880;18.036;2023-04-01T20:54:19;97924.16;;;9.57;65.46
72428;BME280;60419;48.880;18.036;2023-04-01T20:57:38;97933.47;;;9.21;66.82
72428;BME280;60419;48.880;18.036;2023-04-01T21:09:29;97935.31;;;9.46;65.34
72428;BME280;60419;48.880;18.036;2023-04-01T21:12:45;97948.16;;;9.70;64.67
72428;BME280;60419;48.880;18.036;2023-04-01T21:19:02;97944.41;;;9.92;64.13
72428;BME280;60419;48.880;18.036;2023-04-01T21:22:04;97907.88;;;9.95;63.46
72428;BME280;60419;48.880;18.036;2023-04-01T21:34:42;97942.09;;;10.03;63.26
72428;BME280;60419;48.880;18.036;2023-04-01T21:40:36;97941.91;;;10.08;63.23
72428;BME280;60419;48.880;18.036;2023-04-01T22:10:26;97954.31;;;9.80;63.31
72428;BME280;60419;48.880;18.036;2023-04-01T22:13:42;97959.66;;;9.59;64.52
72428;BME280;60419;48.880;18.036;2023-04-01T22:19:37;97966.34;;;9.52;63.73
72428;BME280;60419;48.880;18.036;2023-04-01T22:22:45;97959.44;;;9.34;64.32
72428;BME280;60419;48.880;18.036;2023-04-01T22:25:38;97962.63;;;9.36;64.28
72428;BME280;60419;48.880;18.036;2023-04-01T22:31:24;97958.31;;;9.44;64.31
72428;BME280;60419;48.880;18.036;2023-04-01T22:34:55;97970.88;;;7.57;70.28
72428;BME280;60419;48.880;18.036;2023-04-01T22:37:54;97963.72;;;6.59;75.43
72428;BME280;60419;48.880;18.036;2023-04-01T22:43:47;97970.94;;;7.83;70.53
72428;BME280;60419;48.880;18.036;2023-04-01T22:46:53;97975.41;;;7.39;72.13
72428;BME280;60419;48.880;18.036;2023-04-01T22:49:50;97975.28;;;8.10;69.06
72428;BME280;60419;48.880;18.036;2023-04-01T22:52:50;97976.56;;;8.39;67.44
72428;BME280;60419;48.880;18.036;2023-04-01T22:55:40;97971.47;;;8.46;66.61
72428;BME280;60419;48.880;18.036;2023-04-01T22:58:35;97961.19;;;8.39;67.50
72428;BME280;60419;48.880;18.036;2023-04-01T23:01:30;97970.22;;;8.61;67.18
72428;BME280;60419;48.880;18.036;2023-04-01T23:04:23;97973.38;;;8.72;65.77
72428;BME280;60419;48.880;18.036;2023-04-01T23:10:51;97981.09;;;8.82;65.48
72428;BME280;60419;48.880;18.036;2023-04-01T23:16:51;97992.22;;;8.11;66.44
72428;BME280;60419;48.880;18.036;2023-04-01T23:28:47;97997.31;;;7.32;71.98
72428;BME280;60419;48.880;18.036;2023-04-01T23:31:44;98004.25;;;7.56;70.42
72428;BME280;60419;48.880;18.036;2023-04-01T23:34:32;98003.31;;;7.61;69.46
72428;BME280;60419;48.880;18.036;2023-04-01T23:37:20;97989.94;;;7.87;67.70
72428;BME280;60419;48.880;18.036;2023-04-01T23:40:12;98004.34;;;7.91;67.10
72428;BME280;60419;48.880;18.036;2023-04-01T23:42:58;98003.50;;;7.73;68.69
72428;BME280;60419;48.880;18.036;2023-04-01T23:45:43;98017.69;;;6.57;71.90
72428;BME280;60419;48.880;18.036;2023-04-01T23:51:21;98009.94;;;7.01;72.22
72428;BME280;60419;48.880;18.036;2023-04-01T23:54:17;98016.50;;;7.17;71.57
72428;BME280;60419;48.880;18.036;2023-04-01T23:57:10;98014.22;;;7.02;72.75
